createdAt,value
2023-04-04T00:00:43.943Z,101158.81
2023-04-04T00:03:52.096Z,101158.38
2023-04-04T00:06:58.078Z,101158.28
2023-04-04T00:10:03.652Z,101151.25
2023-04-04T00:13:09.899Z,101159.91
2023-04-04T00:16:15.273Z,101154.25
2023-04-04T00:19:20.636Z,101152.56
2023-04-04T00:22:26.313Z,101154.47
2023-04-04T00:25:31.872Z,101145.72
2023-04-04T00:28:37.555Z,101141.19
2023-04-04T00:31:43.483Z,101151.19
2023-04-04T00:34:55.128Z,101143.03
2023-04-04T00:38:00.808Z,101143.81
2023-04-04T00:41:06.982Z,101145.25
2023-04-04T00:44:12.655Z,101145.50
2023-04-04T00:47:18.523Z,101149.19
2023-04-04T00:50:24.151Z,101145.09
2023-04-04T00:53:29.665Z,101137.75
2023-04-04T00:56:39.187Z,101135.72
2023-04-04T00:59:44.836Z,101132.88
2023-04-04T01:02:51.051Z,101126.16
2023-04-04T01:05:56.613Z,101134.31
2023-04-04T01:09:03.140Z,101127.59
2023-04-04T01:12:08.927Z,101122.06
2023-04-04T01:15:14.397Z,101122.88
2023-04-04T01:18:22.957Z,101126.34
2023-04-04T01:21:30.645Z,101121.41
2023-04-04T01:24:38.452Z,101129.41
2023-04-04T01:27:44.203Z,101134.28
2023-04-04T01:30:53.480Z,101132.63
2023-04-04T01:34:11.369Z,101134.25
2023-04-04T01:37:28.260Z,101137.13
2023-04-04T01:40:37.926Z,101135.06
2023-04-04T01:43:46.925Z,101143.25
2023-04-04T01:46:56.059Z,101143.19
2023-04-04T01:50:02.856Z,101150.38
2023-04-04T01:53:08.132Z,101150.97
2023-04-04T01:56:14.054Z,101152.94
2023-04-04T01:59:19.430Z,101164.00
2023-04-04T02:02:24.636Z,101160.88
2023-04-04T02:05:30.370Z,101160.00
2023-04-04T02:08:36.688Z,101158.78
2023-04-04T02:11:42.974Z,101163.75
2023-04-04T02:14:48.365Z,101164.19
2023-04-04T02:17:53.971Z,101162.69
2023-04-04T02:20:59.686Z,101153.75
2023-04-04T02:24:05.845Z,101153.28
2023-04-04T02:27:10.945Z,101166.34
2023-04-04T02:30:17.169Z,101153.81
2023-04-04T02:33:23.225Z,101155.25
2023-04-04T02:36:29.178Z,101161.50
2023-04-04T02:39:36.001Z,101161.03
2023-04-04T02:42:45.286Z,101158.78
2023-04-04T02:45:51.637Z,101159.66
2023-04-04T02:49:03.913Z,101163.72
2023-04-04T02:52:10.723Z,101151.31
2023-04-04T02:55:19.443Z,101165.75
2023-04-04T02:58:24.833Z,101159.22
2023-04-04T03:01:31.088Z,101159.31
2023-04-04T03:04:39.824Z,101162.00
2023-04-04T03:07:44.910Z,101162.22
2023-04-04T03:10:50.252Z,101168.59
2023-04-04T03:13:56.244Z,101157.88
2023-04-04T03:17:10.933Z,101164.72
2023-04-04T03:20:16.404Z,101170.34
2023-04-04T03:23:23.491Z,101164.69
2023-04-04T03:26:29.613Z,101166.72
2023-04-04T03:29:35.624Z,101165.88
2023-04-04T03:32:41.897Z,101167.09
2023-04-04T03:35:48.102Z,101175.78
2023-04-04T03:38:53.959Z,101173.38
2023-04-04T03:41:59.152Z,101178.97
2023-04-04T03:45:04.614Z,101172.25
2023-04-04T03:48:12.656Z,101173.88
2023-04-04T03:51:25.695Z,101179.53
2023-04-04T03:54:30.855Z,101171.84
2023-04-04T03:57:37.075Z,101172.28
2023-04-04T04:00:47.204Z,101169.66
2023-04-04T04:03:52.680Z,101175.94
2023-04-04T04:06:58.775Z,101172.03
2023-04-04T04:10:05.631Z,101180.53
2023-04-04T04:13:11.768Z,101181.47
2023-04-04T04:16:17.574Z,101181.53
2023-04-04T04:19:23.846Z,101186.66
2023-04-04T04:22:29.627Z,101186.09
2023-04-04T04:25:35.687Z,101181.47
2023-04-04T04:28:49.524Z,101184.34
2023-04-04T04:32:02.052Z,101188.22
2023-04-04T04:35:11.081Z,101192.84
2023-04-04T04:38:17.420Z,101190.19
2023-04-04T04:41:23.266Z,101201.81
2023-04-04T04:44:30.187Z,101206.25
2023-04-04T04:47:35.809Z,101202.59
2023-04-04T04:50:48.359Z,101203.34
2023-04-04T04:54:02.072Z,101205.34
2023-04-04T04:57:10.061Z,101208.25
2023-04-04T05:00:19.936Z,101207.53
2023-04-04T05:03:26.556Z,101208.88
2023-04-04T05:06:32.085Z,101215.31
2023-04-04T05:09:39.010Z,101210.97
2023-04-04T05:12:45.731Z,101214.78
2023-04-04T05:15:58.717Z,101213.22
2023-04-04T05:19:04.539Z,101213.75
2023-04-04T05:22:16.567Z,101217.59
2023-04-04T05:25:27.841Z,101226.47
2023-04-04T05:28:33.473Z,101234.00
2023-04-04T05:31:41.847Z,101233.47
2023-04-04T05:34:54.409Z,101244.66
2023-04-04T05:38:01.347Z,101236.69
2023-04-04T05:41:07.390Z,101250.75
2023-04-04T05:44:12.805Z,101253.03
2023-04-04T05:47:18.284Z,101248.94
2023-04-04T05:50:27.301Z,101255.84
2023-04-04T05:53:39.000Z,101246.44
2023-04-04T05:56:44.850Z,101259.59
2023-04-04T05:59:58.319Z,101261.28
2023-04-04T06:03:04.990Z,101264.56
2023-04-04T06:06:10.757Z,101259.72
2023-04-04T06:09:16.870Z,101269.91
2023-04-04T06:12:22.749Z,101268.84
2023-04-04T06:15:28.737Z,101266.66
2023-04-04T06:18:35.281Z,101264.09
2023-04-04T06:21:40.698Z,101257.69
2023-04-04T06:24:47.032Z,101268.84
2023-04-04T06:27:52.671Z,101269.25
2023-04-04T06:30:58.263Z,101269.84
2023-04-04T06:34:10.726Z,101274.09
2023-04-04T06:37:34.637Z,101279.69
2023-04-04T06:40:48.844Z,101273.66
2023-04-04T06:43:54.556Z,101282.41
2023-04-04T06:47:00.113Z,101277.97
2023-04-04T06:50:06.401Z,101277.97
2023-04-04T06:53:12.591Z,101279.03
2023-04-04T06:56:18.213Z,101273.06
2023-04-04T06:59:23.658Z,101282.34
2023-04-04T07:02:29.089Z,101287.84
2023-04-04T07:05:39.795Z,101287.66
2023-04-04T07:08:45.071Z,101284.06
2023-04-04T07:11:50.397Z,101284.44
2023-04-04T07:14:56.263Z,101290.38
2023-04-04T07:18:02.226Z,101282.22
2023-04-04T07:21:07.790Z,101282.19
2023-04-04T07:24:13.424Z,101287.34
2023-04-04T07:27:18.950Z,101278.13
2023-04-04T07:30:28.048Z,101281.41
2023-04-04T07:33:33.805Z,101279.56
2023-04-04T07:36:39.310Z,101291.66
2023-04-04T07:39:45.607Z,101284.50
2023-04-04T07:42:52.033Z,101287.13
2023-04-04T07:45:57.427Z,101286.34
2023-04-04T07:49:03.068Z,101290.00
2023-04-04T07:52:09.364Z,101288.75
2023-04-04T07:55:16.710Z,101293.28
2023-04-04T07:58:22.634Z,101288.75
2023-04-04T08:01:28.152Z,101298.75
2023-04-04T08:04:33.846Z,101294.22
2023-04-04T08:07:39.319Z,101300.41
2023-04-04T08:10:46.287Z,101295.28
2023-04-04T08:13:52.041Z,101294.03
2023-04-04T08:16:57.895Z,101301.00
2023-04-04T08:20:04.351Z,101292.34
2023-04-04T08:23:10.241Z,101295.63
2023-04-04T08:26:15.778Z,101294.72
2023-04-04T08:29:21.611Z,101295.47
2023-04-04T08:32:27.567Z,101297.31
2023-04-04T08:35:33.360Z,101292.34
2023-04-04T08:38:39.412Z,101296.44
2023-04-04T08:41:46.681Z,101291.66
2023-04-04T08:44:55.346Z,101282.81
2023-04-04T08:48:05.306Z,101293.56
2023-04-04T08:51:14.485Z,101291.72
2023-04-04T08:54:22.439Z,101280.38
2023-04-04T08:57:27.980Z,101290.56
2023-04-04T09:00:33.846Z,101289.56
2023-04-04T09:03:40.930Z,101295.19
2023-04-04T09:06:47.188Z,101300.44
2023-04-04T09:09:54.242Z,101284.22
2023-04-04T09:13:12.530Z,101285.22
2023-04-04T09:16:21.473Z,101291.38
2023-04-04T09:19:27.849Z,101286.94
2023-04-04T09:22:33.417Z,101282.88
2023-04-04T09:25:56.244Z,101289.44
2023-04-04T09:29:08.962Z,101288.69
2023-04-04T09:32:16.487Z,101285.91
2023-04-04T09:35:22.119Z,101279.16
2023-04-04T09:38:29.717Z,101281.59
2023-04-04T09:41:35.428Z,101272.53
2023-04-04T09:44:41.377Z,101275.28
2023-04-04T09:47:47.357Z,101274.00
2023-04-04T09:50:53.054Z,101278.19
2023-04-04T09:53:58.825Z,101277.69
2023-04-04T09:57:04.838Z,101277.00
2023-04-04T10:00:12.955Z,101281.53
2023-04-04T10:03:22.469Z,101274.91
2023-04-04T10:06:28.331Z,101273.81
2023-04-04T10:09:38.488Z,101261.75
2023-04-04T10:12:47.618Z,101267.94
2023-04-04T10:15:54.061Z,101267.19
2023-04-04T10:19:01.757Z,101264.16
2023-04-04T10:22:07.951Z,101259.91
2023-04-04T10:25:14.455Z,101270.03
2023-04-04T10:28:21.852Z,101258.00
2023-04-04T10:31:28.812Z,101259.34
2023-04-04T10:34:45.502Z,101262.09
2023-04-04T10:38:00.139Z,101256.00
2023-04-04T10:41:07.859Z,101261.28
2023-04-04T10:44:29.627Z,101254.78
2023-04-04T10:47:37.015Z,101244.84
2023-04-04T10:50:43.319Z,101254.31
2023-04-04T10:53:50.326Z,101253.38
2023-04-04T10:57:02.406Z,101248.25
2023-04-04T11:00:10.948Z,101246.59
2023-04-04T11:03:16.262Z,101244.97
2023-04-04T11:06:25.045Z,101242.50
2023-04-04T11:09:49.564Z,101245.84
2023-04-04T11:13:11.392Z,101231.56
2023-04-04T11:16:21.467Z,101237.38
2023-04-04T11:19:26.763Z,101238.53
2023-04-04T11:22:32.481Z,101239.81
2023-04-04T11:25:42.553Z,101238.13
2023-04-04T11:28:49.070Z,101225.22
2023-04-04T11:31:54.568Z,101228.38
2023-04-04T11:35:00.120Z,101232.41
2023-04-04T11:38:14.128Z,101227.41
2023-04-04T11:41:21.096Z,101227.84
2023-04-04T11:44:31.077Z,101224.31
2023-04-04T11:47:40.280Z,101222.81
2023-04-04T11:50:51.789Z,101231.19
2023-04-04T11:53:57.421Z,101233.88
2023-04-04T11:57:04.054Z,101219.66
2023-04-04T12:00:12.725Z,101221.06
2023-04-04T12:03:18.929Z,101216.53
2023-04-04T12:06:25.905Z,101215.78
2023-04-04T12:09:31.480Z,101209.03
2023-04-04T12:12:39.953Z,101210.63
2023-04-04T12:15:48.751Z,101210.59
2023-04-04T12:18:54.622Z,101199.69
2023-04-04T12:22:00.231Z,101195.22
2023-04-04T12:25:06.533Z,101192.47
2023-04-04T12:28:13.232Z,101202.69
2023-04-04T12:31:19.146Z,101198.97
2023-04-04T12:37:37.399Z,101191.66
2023-04-04T12:40:44.892Z,101186.75
2023-04-04T12:43:50.591Z,101187.13
2023-04-04T12:47:03.440Z,101184.66
2023-04-04T12:50:09.724Z,101180.50
2023-04-04T12:53:27.968Z,101178.34
2023-04-04T12:56:37.583Z,101172.31
2023-04-04T12:59:47.858Z,101172.84
2023-04-04T13:02:53.489Z,101167.69
2023-04-04T13:06:00.457Z,101163.75
2023-04-04T13:09:07.934Z,101161.63
2023-04-04T13:12:14.727Z,101173.97
2023-04-04T13:15:20.336Z,101160.25
2023-04-04T13:18:26.927Z,101150.91
2023-04-04T13:21:32.743Z,101150.34
2023-04-04T13:24:39.886Z,101148.84
2023-04-04T13:27:46.622Z,101145.31
2023-04-04T13:30:52.423Z,101144.19
2023-04-04T13:33:57.784Z,101135.19
2023-04-04T13:37:03.253Z,101125.06
2023-04-04T13:40:10.072Z,101130.84
2023-04-04T13:43:15.649Z,101126.91
2023-04-04T13:46:20.738Z,101129.16
2023-04-04T13:49:26.249Z,101122.63
2023-04-04T13:52:31.480Z,101122.44
2023-04-04T13:55:37.254Z,101123.75
2023-04-04T13:58:43.324Z,101114.28
2023-04-04T14:01:48.913Z,101113.59
2023-04-04T14:04:54.222Z,101117.34
2023-04-04T14:07:59.375Z,101115.66
2023-04-04T14:11:05.076Z,101114.59
2023-04-04T14:14:10.685Z,101122.59
2023-04-04T14:17:16.224Z,101122.66
2023-04-04T14:20:21.866Z,101113.31
2023-04-04T14:23:27.591Z,101118.34
2023-04-04T14:26:34.077Z,101120.56
2023-04-04T14:29:40.477Z,101121.28
2023-04-04T14:32:46.527Z,101122.84
2023-04-04T14:35:52.218Z,101122.72
2023-04-04T14:38:58.409Z,101113.16
2023-04-04T14:42:04.340Z,101107.28
2023-04-04T14:45:12.532Z,101103.38
2023-04-04T14:48:17.875Z,101116.00
2023-04-04T14:51:23.694Z,101118.34
2023-04-04T14:54:29.118Z,101111.50
2023-04-04T14:57:39.345Z,101112.97
2023-04-04T15:00:49.669Z,101118.41
2023-04-04T15:03:56.038Z,101110.72
2023-04-04T15:07:03.483Z,101105.94
2023-04-04T15:10:09.481Z,101106.47
2023-04-04T15:13:15.178Z,101106.41
2023-04-04T15:16:21.853Z,101111.28
2023-04-04T15:19:27.427Z,101104.75
2023-04-04T15:22:33.081Z,101103.31
2023-04-04T15:25:38.805Z,101106.09
2023-04-04T15:28:44.253Z,101101.91
2023-04-04T15:31:49.958Z,101101.13
2023-04-04T15:34:55.832Z,101104.69
2023-04-04T15:38:01.518Z,101110.00
2023-04-04T15:41:10.422Z,101115.16
2023-04-04T15:44:17.499Z,101100.72
2023-04-04T15:47:24.021Z,101099.97
2023-04-04T15:50:30.289Z,101100.34
2023-04-04T15:53:36.541Z,101104.09
2023-04-04T15:56:42.086Z,101110.03
2023-04-04T15:59:47.954Z,101109.75
2023-04-04T16:02:53.206Z,101112.41
2023-04-04T16:05:58.310Z,101105.59
2023-04-04T16:09:03.681Z,101107.91
2023-04-04T16:12:08.571Z,101098.09
2023-04-04T16:15:13.682Z,101109.09
2023-04-04T16:18:18.803Z,101103.81
2023-04-04T16:21:24.400Z,101111.28
2023-04-04T16:24:29.308Z,101104.34
2023-04-04T16:27:34.769Z,101112.06
2023-04-04T16:30:40.036Z,101109.44
2023-04-04T16:33:45.417Z,101113.94
2023-04-04T16:36:50.613Z,101117.44
2023-04-04T16:39:56.787Z,101127.31
2023-04-04T16:43:03.041Z,101124.41
2023-04-04T16:46:08.571Z,101121.91
2023-04-04T16:49:14.392Z,101120.16
2023-04-04T16:52:19.569Z,101120.19
2023-04-04T16:55:27.782Z,101130.88
2023-04-04T16:58:32.828Z,101130.88
2023-04-04T17:01:38.266Z,101127.72
2023-04-04T17:04:45.044Z,101125.84
2023-04-04T17:07:51.121Z,101125.69
2023-04-04T17:10:56.610Z,101125.38
2023-04-04T17:14:02.572Z,101123.63
2023-04-04T17:17:09.062Z,101126.03
2023-04-04T17:20:18.327Z,101136.88
2023-04-04T17:23:24.390Z,101135.81
2023-04-04T17:26:30.072Z,101132.56
2023-04-04T17:29:36.229Z,101136.94
2023-04-04T17:32:41.593Z,101133.69
2023-04-04T17:35:48.612Z,101140.47
2023-04-04T17:38:54.002Z,101143.34
2023-04-04T17:41:59.233Z,101149.94
2023-04-04T17:45:05.325Z,101153.56
2023-04-04T17:48:11.801Z,101151.94
2023-04-04T17:51:18.966Z,101155.06
2023-04-04T17:54:26.261Z,101157.19
2023-04-04T17:57:31.798Z,101154.06
2023-04-04T18:00:37.243Z,101166.22
2023-04-04T18:03:43.134Z,101163.81
2023-04-04T18:06:49.534Z,101174.16
2023-04-04T18:09:54.853Z,101179.13
2023-04-04T18:13:00.354Z,101179.03
2023-04-04T18:16:07.805Z,101181.47
2023-04-04T18:19:13.572Z,101192.25
2023-04-04T18:22:19.650Z,101199.31
2023-04-04T18:25:25.829Z,101203.16
2023-04-04T18:28:31.100Z,101210.00
2023-04-04T18:31:36.864Z,101218.69
2023-04-04T18:34:42.244Z,101221.69
2023-04-04T18:37:47.470Z,101223.56
2023-04-04T18:40:52.991Z,101229.31
2023-04-04T18:43:58.523Z,101238.72
2023-04-04T18:47:05.574Z,101242.78
2023-04-04T18:50:12.728Z,101247.34
2023-04-04T18:53:18.006Z,101254.28
2023-04-04T18:56:23.507Z,101256.59
2023-04-04T18:59:29.831Z,101260.50
2023-04-04T19:02:37.623Z,101263.16
2023-04-04T19:05:49.173Z,101267.28
2023-04-04T19:08:59.120Z,101271.56
2023-04-04T19:12:04.760Z,101275.47
2023-04-04T19:15:10.879Z,101279.56
2023-04-04T19:18:16.516Z,101281.81
2023-04-04T19:21:22.222Z,101293.88
2023-04-04T19:24:27.667Z,101293.06
2023-04-04T19:27:33.105Z,101292.88
2023-04-04T19:30:48.135Z,101300.22
2023-04-04T19:33:57.092Z,101308.41
2023-04-04T19:37:02.873Z,101306.16
2023-04-04T19:40:16.727Z,101309.22
2023-04-04T19:43:23.077Z,101318.22
2023-04-04T19:46:33.785Z,101324.38
2023-04-04T19:49:39.906Z,101327.22
2023-04-04T19:52:45.233Z,101329.47
2023-04-04T19:55:50.800Z,101330.91
2023-04-04T19:59:03.739Z,101343.34
2023-04-04T20:02:35.257Z,101342.34
2023-04-04T20:05:41.064Z,101342.75
2023-04-04T20:08:49.249Z,101338.66
2023-04-04T20:11:54.672Z,101344.16
2023-04-04T20:15:00.053Z,101344.31
2023-04-04T20:18:08.097Z,101351.47
2023-04-04T20:21:23.328Z,101361.88
2023-04-04T20:24:28.851Z,101363.69
2023-04-04T20:27:37.146Z,101374.50
2023-04-04T20:30:42.418Z,101379.94
2023-04-04T20:33:48.576Z,101388.34
2023-04-04T20:36:54.279Z,101387.84
2023-04-04T20:40:03.471Z,101390.44
2023-04-04T20:43:08.893Z,101401.19
2023-04-04T20:46:14.536Z,101396.28
2023-04-04T20:49:20.246Z,101409.16
2023-04-04T20:52:26.400Z,101403.16
2023-04-04T20:55:34.700Z,101406.16
2023-04-04T20:58:39.990Z,101414.97
2023-04-04T21:01:45.428Z,101413.34
2023-04-04T21:04:52.283Z,101408.88
2023-04-04T21:07:59.275Z,101417.09
2023-04-04T21:11:07.007Z,101422.91
2023-04-04T21:14:30.931Z,101424.59
2023-04-04T21:17:36.763Z,101429.69
2023-04-04T21:20:47.843Z,101430.59
2023-04-04T21:23:59.112Z,101429.41
2023-04-04T21:27:07.263Z,101431.56
2023-04-04T21:30:46.311Z,101436.34
2023-04-04T21:33:55.111Z,101440.84
2023-04-04T21:37:02.437Z,101445.00
2023-04-04T21:40:09.723Z,101448.88
2023-04-04T21:43:15.169Z,101452.63
2023-04-04T21:46:24.049Z,101448.09
2023-04-04T21:49:29.757Z,101443.13
2023-04-04T21:52:34.855Z,101447.34
2023-04-04T21:55:39.826Z,101451.59
2023-04-04T21:58:45.568Z,101452.16
2023-04-04T22:01:51.405Z,101452.13
2023-04-04T22:04:57.565Z,101455.09
2023-04-04T22:08:03.109Z,101454.16
2023-04-04T22:11:13.701Z,101460.75
2023-04-04T22:14:19.145Z,101459.31
2023-04-04T22:17:25.123Z,101456.94
2023-04-04T22:20:32.547Z,101465.84
2023-04-04T22:23:37.648Z,101464.78
2023-04-04T22:26:42.807Z,101466.59
2023-04-04T22:29:47.963Z,101470.72
2023-04-04T22:32:53.204Z,101468.59
2023-04-04T22:35:59.537Z,101466.44
2023-04-04T22:39:06.041Z,101460.56
2023-04-04T22:42:13.053Z,101470.66
2023-04-04T22:45:18.717Z,101478.00
2023-04-04T22:48:24.671Z,101472.94
2023-04-04T22:51:31.297Z,101476.38
2023-04-04T22:54:37.229Z,101485.25
2023-04-04T22:57:43.546Z,101481.50
2023-04-04T23:00:49.070Z,101488.75
2023-04-04T23:03:54.155Z,101482.53
2023-04-04T23:06:59.457Z,101482.00
2023-04-04T23:10:06.689Z,101478.31
2023-04-04T23:13:12.202Z,101484.88
2023-04-04T23:16:17.842Z,101483.53
2023-04-04T23:19:23.909Z,101485.09
2023-04-04T23:22:29.659Z,101481.91
2023-04-04T23:25:35.496Z,101485.09
2023-04-04T23:28:41.254Z,101485.53
2023-04-04T23:31:46.541Z,101485.19
2023-04-04T23:34:51.531Z,101480.44
2023-04-04T23:37:57.002Z,101480.06
2023-04-04T23:41:02.748Z,101488.19
2023-04-04T23:44:08.179Z,101480.75
2023-04-04T23:47:13.957Z,101484.13
2023-04-04T23:50:20.177Z,101482.25
2023-04-04T23:53:26.357Z,101486.84
2023-04-04T23:56:33.106Z,101486.47
2023-04-04T23:59:38.900Z,101486.03
